createdAt,value
2022-07-27T00:01:14.634Z,-70
2022-07-27T00:03:44.671Z,-69
2022-07-27T00:06:13.425Z,-68
2022-07-27T00:08:41.628Z,-69
2022-07-27T00:11:11.646Z,-69
2022-07-27T00:13:40.691Z,-69
2022-07-27T00:16:09.425Z,-71
2022-07-27T00:18:37.616Z,-68
2022-07-27T00:21:05.885Z,-69
2022-07-27T00:23:34.116Z,-67
2022-07-27T00:26:02.217Z,-70
2022-07-27T00:28:31.768Z,-69
2022-07-27T00:31:00.164Z,-70
2022-07-27T00:33:28.353Z,-69
2022-07-27T00:35:56.468Z,-68
2022-07-27T00:38:25.137Z,-69
2022-07-27T00:40:53.744Z,-69
2022-07-27T00:43:21.803Z,-69
2022-07-27T00:45:51.463Z,-69
2022-07-27T00:48:19.560Z,-69
2022-07-27T00:50:49.000Z,-69
2022-07-27T00:53:17.823Z,-68
2022-07-27T00:55:46.644Z,-70
2022-07-27T00:58:15.620Z,-70
2022-07-27T01:00:43.808Z,-69
2022-07-27T01:03:13.694Z,-69
2022-07-27T01:05:44.747Z,-69
2022-07-27T01:08:15.196Z,-70
2022-07-27T01:10:44.866Z,-69
2022-07-27T01:13:13.752Z,-69
2022-07-27T01:15:44.039Z,-68
2022-07-27T01:18:26.486Z,-68
2022-07-27T01:20:54.673Z,-70
2022-07-27T01:23:24.369Z,-69
2022-07-27T01:25:52.701Z,-68
2022-07-27T01:28:21.192Z,-69
2022-07-27T01:30:49.357Z,-69
2022-07-27T01:33:17.682Z,-69
2022-07-27T01:35:45.771Z,-68
2022-07-27T01:38:14.442Z,-69
2022-07-27T01:40:43.866Z,-69
2022-07-27T01:43:11.973Z,-68
2022-07-27T01:45:41.302Z,-69
2022-07-27T01:48:10.534Z,-68
2022-07-27T01:50:39.514Z,-68
2022-07-27T01:53:09.570Z,-68
2022-07-27T01:55:39.440Z,-69
2022-07-27T01:58:09.800Z,-68
2022-07-27T02:00:38.818Z,-69
2022-07-27T02:03:08.940Z,-68
2022-07-27T02:05:39.529Z,-69
2022-07-27T02:08:09.325Z,-70
2022-07-27T02:10:58.578Z,-68
2022-07-27T02:13:27.147Z,-69
2022-07-27T02:15:56.978Z,-70
2022-07-27T02:18:33.001Z,-70
2022-07-27T02:21:04.579Z,-69
2022-07-27T02:23:32.780Z,-69
2022-07-27T02:26:01.220Z,-68
2022-07-27T02:28:30.752Z,-69
2022-07-27T02:30:58.871Z,-69
2022-07-27T02:33:27.406Z,-69
2022-07-27T02:35:55.570Z,-68
2022-07-27T02:38:23.682Z,-69
2022-07-27T02:40:51.755Z,-70
2022-07-27T02:43:19.865Z,-69
2022-07-27T02:45:49.500Z,-69
2022-07-27T02:48:17.791Z,-68
2022-07-27T02:50:45.972Z,-70
2022-07-27T02:53:14.069Z,-69
2022-07-27T02:55:42.399Z,-69
2022-07-27T02:58:10.553Z,-69
2022-07-27T03:00:38.754Z,-71
2022-07-27T03:03:08.240Z,-69
2022-07-27T03:05:36.847Z,-69
2022-07-27T03:08:05.602Z,-70
2022-07-27T03:10:33.748Z,-70
2022-07-27T03:13:01.811Z,-68
2022-07-27T03:15:30.628Z,-69
2022-07-27T03:17:58.764Z,-70
2022-07-27T03:20:28.446Z,-68
2022-07-27T03:22:56.596Z,-69
2022-07-27T03:25:25.893Z,-69
2022-07-27T03:27:53.966Z,-70
2022-07-27T03:30:22.502Z,-70
2022-07-27T03:32:50.812Z,-69
2022-07-27T03:35:19.812Z,-70
2022-07-27T03:37:50.025Z,-69
2022-07-27T03:40:18.795Z,-69
2022-07-27T03:42:47.015Z,-69
2022-07-27T03:45:15.196Z,-69
2022-07-27T03:47:43.395Z,-71
2022-07-27T03:50:12.359Z,-70
2022-07-27T03:52:40.475Z,-68
2022-07-27T03:55:15.342Z,-70
2022-07-27T03:57:43.515Z,-69
2022-07-27T04:00:14.027Z,-70
2022-07-27T04:02:42.724Z,-69
2022-07-27T04:05:11.842Z,-69
2022-07-27T04:07:41.135Z,-68
2022-07-27T04:10:10.862Z,-69
2022-07-27T04:12:41.421Z,-69
2022-07-27T04:15:10.813Z,-69
2022-07-27T04:17:54.610Z,-69
2022-07-27T04:20:25.820Z,-69
2022-07-27T04:22:53.999Z,-68
2022-07-27T04:25:22.576Z,-68
2022-07-27T04:27:54.342Z,-68
2022-07-27T04:30:23.101Z,-68
2022-07-27T04:32:51.495Z,-68
2022-07-27T04:35:24.253Z,-69
2022-07-27T04:37:58.835Z,-70
2022-07-27T04:40:32.305Z,-68
2022-07-27T04:43:02.814Z,-69
2022-07-27T04:45:31.539Z,-70
2022-07-27T04:48:00.006Z,-69
2022-07-27T04:50:28.016Z,-68
2022-07-27T04:52:56.044Z,-69
2022-07-27T04:55:24.312Z,-69
2022-07-27T04:57:52.397Z,-69
2022-07-27T05:00:22.024Z,-69
2022-07-27T05:02:50.118Z,-69
2022-07-27T05:05:18.268Z,-68
2022-07-27T05:07:46.300Z,-68
2022-07-27T05:10:19.445Z,-69
2022-07-27T05:12:48.735Z,-69
2022-07-27T05:15:17.598Z,-68
2022-07-27T05:17:47.109Z,-68
2022-07-27T05:20:17.435Z,-68
2022-07-27T05:22:45.487Z,-68
2022-07-27T05:25:13.969Z,-68
2022-07-27T05:27:54.762Z,-68
2022-07-27T05:30:25.359Z,-68
2022-07-27T05:32:54.914Z,-69
2022-07-27T05:35:23.512Z,-69
2022-07-27T05:37:51.611Z,-70
2022-07-27T05:40:19.866Z,-68
2022-07-27T05:42:48.176Z,-70
2022-07-27T05:45:16.734Z,-69
2022-07-27T05:47:44.881Z,-69
2022-07-27T05:50:15.042Z,-69
2022-07-27T05:52:43.698Z,-69
2022-07-27T05:55:12.683Z,-70
2022-07-27T05:57:42.063Z,-69
2022-07-27T06:00:12.342Z,-70
2022-07-27T06:02:40.805Z,-63
2022-07-27T06:05:15.246Z,-64
2022-07-27T06:08:00.086Z,-62
2022-07-27T06:10:30.082Z,-62
2022-07-27T06:12:58.161Z,-63
2022-07-27T06:15:26.266Z,-63
2022-07-27T06:17:54.739Z,-64
2022-07-27T06:20:24.771Z,-64
2022-07-27T06:22:57.125Z,-63
2022-07-27T06:25:34.166Z,-63
2022-07-27T06:28:04.925Z,-62
2022-07-27T06:30:33.625Z,-63
2022-07-27T06:33:04.176Z,-64
2022-07-27T06:35:32.470Z,-62
2022-07-27T06:38:03.121Z,-65
2022-07-27T06:40:32.139Z,-62
2022-07-27T06:43:00.455Z,-62
2022-07-27T06:45:28.806Z,-65
2022-07-27T06:47:57.557Z,-65
2022-07-27T06:50:26.221Z,-65
2022-07-27T06:52:54.339Z,-64
2022-07-27T06:55:23.788Z,-65
2022-07-27T06:57:51.951Z,-64
2022-07-27T07:00:20.000Z,-64
2022-07-27T07:02:57.023Z,-64
2022-07-27T07:05:25.806Z,-64
2022-07-27T07:07:55.301Z,-66
2022-07-27T07:10:27.024Z,-64
2022-07-27T07:12:56.525Z,-66
2022-07-27T07:15:26.235Z,-65
2022-07-27T07:17:54.658Z,-65
2022-07-27T07:20:23.452Z,-66
2022-07-27T07:22:51.783Z,-64
2022-07-27T07:25:19.837Z,-64
2022-07-27T07:27:49.986Z,-64
2022-07-27T07:30:18.143Z,-64
2022-07-27T07:32:46.189Z,-64
2022-07-27T07:35:14.434Z,-64
2022-07-27T07:37:42.758Z,-65
2022-07-27T07:40:41.525Z,-64
2022-07-27T07:43:03.995Z,-64
2022-07-27T07:45:39.091Z,-64
2022-07-27T07:48:19.740Z,-65
2022-07-27T07:50:51.507Z,-64
2022-07-27T07:53:21.466Z,-64
2022-07-27T07:55:49.698Z,-65
2022-07-27T07:58:19.267Z,-64
2022-07-27T08:00:47.399Z,-64
2022-07-27T08:03:16.229Z,-64
2022-07-27T08:05:44.732Z,-65
2022-07-27T08:08:13.334Z,-64
2022-07-27T08:10:41.768Z,-64
2022-07-27T08:13:09.877Z,-64
2022-07-27T08:15:39.357Z,-64
2022-07-27T08:18:09.509Z,-64
2022-07-27T08:20:37.649Z,-64
2022-07-27T08:23:06.069Z,-65
2022-07-27T08:25:34.677Z,-64
2022-07-27T08:28:03.046Z,-65
2022-07-27T08:30:32.935Z,-64
2022-07-27T08:33:05.745Z,-66
2022-07-27T08:35:36.246Z,-65
2022-07-27T08:38:09.394Z,-66
2022-07-27T08:40:42.529Z,-65
2022-07-27T08:43:18.895Z,-75
2022-07-27T08:45:56.325Z,-74
2022-07-27T08:48:27.673Z,-73
2022-07-27T08:50:56.673Z,-74
2022-07-27T08:53:25.329Z,-76
2022-07-27T08:55:56.693Z,-75
2022-07-27T08:58:25.068Z,-75
2022-07-27T09:00:53.464Z,-74
2022-07-27T09:03:23.802Z,-77
2022-07-27T09:05:56.352Z,-75
2022-07-27T09:08:30.195Z,-76
2022-07-27T09:11:00.908Z,-73
2022-07-27T09:13:31.642Z,-74
2022-07-27T09:16:19.347Z,-74
2022-07-27T09:18:49.629Z,-76
2022-07-27T09:21:22.539Z,-75
2022-07-27T09:23:53.500Z,-76
2022-07-27T09:26:33.875Z,-73
2022-07-27T09:29:06.054Z,-74
2022-07-27T09:31:41.689Z,-74
2022-07-27T09:34:10.205Z,-73
2022-07-27T09:36:53.917Z,-74
2022-07-27T09:39:24.836Z,-75
2022-07-27T09:41:55.673Z,-74
2022-07-27T09:44:41.971Z,-74
2022-07-27T09:47:26.326Z,-73
2022-07-27T09:49:57.175Z,-74
2022-07-27T09:52:31.097Z,-74
2022-07-27T09:55:05.953Z,-74
2022-07-27T09:57:53.192Z,-76
2022-07-27T10:00:22.494Z,-73
2022-07-27T10:02:51.096Z,-74
2022-07-27T10:05:21.639Z,-75
2022-07-27T10:07:54.397Z,-74
2022-07-27T10:10:24.089Z,-74
2022-07-27T10:12:55.264Z,-72
2022-07-27T10:15:24.368Z,-74
2022-07-27T10:18:07.394Z,-75
2022-07-27T10:20:42.169Z,-73
2022-07-27T10:23:28.776Z,-74
2022-07-27T10:26:22.767Z,-74
2022-07-27T10:28:57.961Z,-75
2022-07-27T10:31:28.498Z,-74
2022-07-27T10:34:00.127Z,-73
2022-07-27T10:36:53.843Z,-74
2022-07-27T10:39:36.370Z,-73
2022-07-27T10:42:25.219Z,-64
2022-07-27T10:45:00.531Z,-64
2022-07-27T10:47:41.521Z,-64
2022-07-27T10:50:29.755Z,-63
2022-07-27T10:53:02.454Z,-64
2022-07-27T10:55:50.120Z,-64
2022-07-27T10:58:51.199Z,-63
2022-07-27T11:01:22.610Z,-65
2022-07-27T11:03:53.562Z,-65
2022-07-27T11:06:41.860Z,-65
2022-07-27T11:12:07.732Z,-65
2022-07-27T11:14:47.486Z,-64
2022-07-27T11:17:49.454Z,-64
2022-07-27T11:20:06.959Z,-64
2022-07-27T11:23:20.806Z,-64
2022-07-27T11:25:27.483Z,-64
2022-07-27T11:27:56.934Z,-64
2022-07-27T11:30:27.744Z,-64
2022-07-27T11:32:56.802Z,-64
2022-07-27T11:35:26.148Z,-64
2022-07-27T11:38:03.210Z,-64
2022-07-27T11:43:45.214Z,-65
2022-07-27T11:46:17.149Z,-64
2022-07-27T11:49:08.425Z,-64
2022-07-27T11:51:41.167Z,-63
2022-07-27T11:54:12.454Z,-63
2022-07-27T11:56:44.401Z,-64
2022-07-27T11:59:17.610Z,-64
2022-07-27T12:01:51.156Z,-64
2022-07-27T12:04:27.472Z,-64
2022-07-27T12:07:07.607Z,-65
2022-07-27T12:09:39.120Z,-63
2022-07-27T12:12:18.014Z,-64
2022-07-27T12:14:51.050Z,-64
2022-07-27T12:17:31.011Z,-65
2022-07-27T12:20:05.917Z,-65
2022-07-27T12:22:39.022Z,-65
2022-07-27T12:25:16.074Z,-66
2022-07-27T12:27:57.325Z,-65
2022-07-27T12:30:35.263Z,-65
2022-07-27T12:33:07.278Z,-65
2022-07-27T12:35:47.181Z,-64
2022-07-27T12:38:16.250Z,-63
2022-07-27T12:40:47.743Z,-64
2022-07-27T12:43:19.162Z,-64
2022-07-27T12:45:51.769Z,-64
2022-07-27T12:48:23.480Z,-63
2022-07-27T12:51:00.625Z,-65
2022-07-27T12:53:30.162Z,-65
2022-07-27T12:56:01.362Z,-64
2022-07-27T12:58:29.658Z,-65
2022-07-27T13:00:59.162Z,-64
2022-07-27T13:03:27.278Z,-64
2022-07-27T13:05:55.287Z,-63
2022-07-27T13:08:23.562Z,-66
2022-07-27T13:10:52.836Z,-65
2022-07-27T13:13:24.266Z,-64
2022-07-27T13:15:52.735Z,-63
2022-07-27T13:18:24.026Z,-65
2022-07-27T13:20:52.530Z,-63
2022-07-27T13:23:21.306Z,-65
2022-07-27T13:25:49.608Z,-65
2022-07-27T13:28:17.906Z,-64
2022-07-27T13:30:45.900Z,-65
2022-07-27T13:33:14.021Z,-64
2022-07-27T13:35:43.661Z,-64
2022-07-27T13:38:16.304Z,-64
2022-07-27T13:40:45.175Z,-64
2022-07-27T13:43:13.282Z,-63
2022-07-27T13:45:43.325Z,-63
2022-07-27T13:48:13.050Z,-64
2022-07-27T13:50:42.816Z,-63
2022-07-27T13:53:15.270Z,-63
2022-07-27T13:55:44.650Z,-63
2022-07-27T13:58:12.889Z,-65
2022-07-27T14:00:41.644Z,-65
2022-07-27T14:03:11.514Z,-65
2022-07-27T14:05:45.429Z,-64
2022-07-27T14:08:20.951Z,-65
2022-07-27T14:10:49.077Z,-65
2022-07-27T14:13:22.168Z,-65
2022-07-27T14:15:54.473Z,-64
2022-07-27T14:18:26.289Z,-64
2022-07-27T14:20:55.441Z,-65
2022-07-27T14:23:26.274Z,-66
2022-07-27T14:25:56.695Z,-65
2022-07-27T14:28:26.494Z,-65
2022-07-27T14:30:55.243Z,-65
2022-07-27T14:33:24.628Z,-63
2022-07-27T14:35:53.588Z,-64
2022-07-27T14:38:29.719Z,-64
2022-07-27T14:41:01.585Z,-64
2022-07-27T14:43:30.510Z,-64
2022-07-27T14:45:59.263Z,-65
2022-07-27T14:48:48.867Z,-64
2022-07-27T14:51:16.014Z,-65
2022-07-27T14:53:44.138Z,-65
2022-07-27T14:56:13.723Z,-64
2022-07-27T14:58:41.904Z,-63
2022-07-27T15:01:10.068Z,-65
2022-07-27T15:03:38.208Z,-64
2022-07-27T15:06:06.400Z,-64
2022-07-27T15:08:34.503Z,-64
2022-07-27T15:11:02.598Z,-65
2022-07-27T15:13:32.085Z,-64
2022-07-27T15:16:00.262Z,-64
2022-07-27T15:18:28.474Z,-64
2022-07-27T15:20:56.555Z,-64
2022-07-27T15:23:24.666Z,-65
2022-07-27T15:25:53.710Z,-65
2022-07-27T15:28:21.891Z,-64
2022-07-27T15:30:53.520Z,-65
2022-07-27T15:33:21.570Z,-64
2022-07-27T15:35:49.690Z,-64
2022-07-27T15:38:17.732Z,-64
2022-07-27T15:40:45.829Z,-64
2022-07-27T15:43:17.224Z,-64
2022-07-27T15:45:48.864Z,-64
2022-07-27T15:48:20.515Z,-66
2022-07-27T15:50:52.571Z,-64
2022-07-27T15:53:23.061Z,-64
2022-07-27T15:55:52.744Z,-65
2022-07-27T15:58:22.039Z,-63
2022-07-27T16:00:56.118Z,-64
2022-07-27T16:03:27.450Z,-63
2022-07-27T16:05:56.905Z,-64
2022-07-27T16:08:27.066Z,-65
2022-07-27T16:10:55.072Z,-64
2022-07-27T16:13:23.135Z,-64
2022-07-27T16:16:09.206Z,-63
2022-07-27T16:18:39.240Z,-64
2022-07-27T16:21:07.532Z,-64
2022-07-27T16:23:35.876Z,-64
2022-07-27T16:26:06.101Z,-64
2022-07-27T16:28:38.493Z,-64
2022-07-27T16:31:08.669Z,-65
2022-07-27T16:33:38.927Z,-64
2022-07-27T16:36:08.493Z,-67
2022-07-27T16:38:36.932Z,-66
2022-07-27T16:41:07.333Z,-65
2022-07-27T16:43:38.070Z,-64
2022-07-27T16:46:10.003Z,-65
2022-07-27T16:48:41.701Z,-64
2022-07-27T16:51:11.157Z,-65
2022-07-27T16:53:40.060Z,-65
2022-07-27T16:56:09.183Z,-65
2022-07-27T16:58:39.227Z,-65
2022-07-27T17:01:09.401Z,-65
2022-07-27T17:03:39.049Z,-63
2022-07-27T17:06:07.569Z,-66
2022-07-27T17:08:36.626Z,-64
2022-07-27T17:11:06.206Z,-65
2022-07-27T17:13:35.715Z,-64
2022-07-27T17:16:05.682Z,-65
2022-07-27T17:18:39.957Z,-65
2022-07-27T17:21:12.526Z,-64
2022-07-27T17:23:41.988Z,-65
2022-07-27T17:26:11.300Z,-64
2022-07-27T17:28:40.754Z,-66
2022-07-27T17:31:12.411Z,-68
2022-07-27T17:33:41.800Z,-67
2022-07-27T17:36:14.997Z,-64
2022-07-27T17:38:44.386Z,-65
2022-07-27T17:41:13.194Z,-63
2022-07-27T17:43:41.835Z,-65
2022-07-27T17:46:12.627Z,-65
2022-07-27T17:48:41.447Z,-65
2022-07-27T17:51:11.630Z,-65
2022-07-27T17:53:40.015Z,-64
2022-07-27T17:56:08.531Z,-66
2022-07-27T17:58:36.907Z,-65
2022-07-27T18:01:05.325Z,-67
2022-07-27T18:03:33.718Z,-66
2022-07-27T18:06:02.644Z,-65
2022-07-27T18:08:32.194Z,-65
2022-07-27T18:11:00.533Z,-66
2022-07-27T18:13:39.505Z,-65
2022-07-27T18:16:11.545Z,-64
2022-07-27T18:18:41.265Z,-65
2022-07-27T18:21:10.997Z,-67
2022-07-27T18:23:40.977Z,-66
2022-07-27T18:26:10.810Z,-66
2022-07-27T18:28:40.029Z,-64
2022-07-27T18:31:12.280Z,-64
2022-07-27T18:33:45.712Z,-65
2022-07-27T18:36:14.520Z,-65
2022-07-27T18:38:45.056Z,-65
2022-07-27T18:41:14.087Z,-66
2022-07-27T18:43:42.204Z,-66
2022-07-27T18:46:10.303Z,-66
2022-07-27T18:48:38.830Z,-65
2022-07-27T18:51:06.927Z,-65
2022-07-27T18:53:35.059Z,-66
2022-07-27T18:56:04.875Z,-66
2022-07-27T18:58:33.235Z,-68
2022-07-27T19:01:01.199Z,-66
2022-07-27T19:03:30.501Z,-66
2022-07-27T19:05:58.590Z,-65
2022-07-27T19:08:26.807Z,-66
2022-07-27T19:10:54.868Z,-65
2022-07-27T19:13:24.353Z,-66
2022-07-27T19:15:52.471Z,-67
2022-07-27T19:18:20.548Z,-64
2022-07-27T19:20:48.648Z,-64
2022-07-27T19:23:17.167Z,-65
2022-07-27T19:25:46.085Z,-65
2022-07-27T19:28:18.885Z,-65
2022-07-27T19:30:48.694Z,-65
2022-07-27T19:33:16.730Z,-65
2022-07-27T19:35:44.903Z,-67
2022-07-27T19:38:13.356Z,-65
2022-07-27T19:40:45.006Z,-65
2022-07-27T19:43:15.739Z,-65
2022-07-27T19:45:44.001Z,-64
2022-07-27T19:48:13.738Z,-65
2022-07-27T19:50:42.422Z,-65
2022-07-27T19:53:10.624Z,-65
2022-07-27T19:55:38.840Z,-65
2022-07-27T19:58:06.894Z,-65
2022-07-27T20:00:35.021Z,-65
2022-07-27T20:03:03.423Z,-65
2022-07-27T20:05:32.931Z,-65
2022-07-27T20:08:01.102Z,-64
2022-07-27T20:10:29.216Z,-65
2022-07-27T20:12:57.415Z,-64
2022-07-27T20:15:26.311Z,-65
2022-07-27T20:17:54.320Z,-64
2022-07-27T20:20:22.691Z,-65
2022-07-27T20:22:52.453Z,-64
2022-07-27T20:25:20.557Z,-64
2022-07-27T20:27:48.934Z,-64
2022-07-27T20:30:19.955Z,-62
2022-07-27T20:32:49.006Z,-64
2022-07-27T20:35:17.768Z,-68
2022-07-27T20:37:47.318Z,-64
2022-07-27T20:40:16.886Z,-65
2022-07-27T20:42:45.315Z,-65
2022-07-27T20:45:14.590Z,-65
2022-07-27T20:47:44.131Z,-65
2022-07-27T20:50:15.429Z,-66
2022-07-27T20:52:44.318Z,-65
2022-07-27T20:55:12.967Z,-65
2022-07-27T20:57:42.325Z,-66
2022-07-27T21:00:12.752Z,-66
2022-07-27T21:02:40.906Z,-63
2022-07-27T21:05:10.417Z,-65
2022-07-27T21:07:38.834Z,-65
2022-07-27T21:10:08.560Z,-65
2022-07-27T21:12:36.698Z,-66
2022-07-27T21:15:13.075Z,-64
2022-07-27T21:17:41.724Z,-66
2022-07-27T21:20:11.489Z,-66
2022-07-27T21:22:39.528Z,-65
2022-07-27T21:25:08.663Z,-65
2022-07-27T21:27:37.127Z,-65
2022-07-27T21:30:09.633Z,-64
2022-07-27T21:32:37.665Z,-68
2022-07-27T21:35:07.363Z,-64
2022-07-27T21:37:35.600Z,-66
2022-07-27T21:40:03.646Z,-66
2022-07-27T21:42:32.986Z,-65
2022-07-27T21:45:01.000Z,-65
2022-07-27T21:47:31.904Z,-64
2022-07-27T21:50:00.092Z,-65
2022-07-27T21:52:28.063Z,-66
2022-07-27T21:54:56.113Z,-66
2022-07-27T21:57:24.187Z,-65
2022-07-27T21:59:52.425Z,-65
2022-07-27T22:02:20.524Z,-65
2022-07-27T22:04:50.089Z,-66
2022-07-27T22:07:19.564Z,-65
2022-07-27T22:09:47.728Z,-65
2022-07-27T22:12:15.857Z,-63
2022-07-27T22:14:43.977Z,-64
2022-07-27T22:17:12.041Z,-64
2022-07-27T22:19:40.242Z,-65
2022-07-27T22:22:09.685Z,-63
2022-07-27T22:24:38.084Z,-64
2022-07-27T22:27:06.890Z,-64
2022-07-27T22:29:35.607Z,-65
2022-07-27T22:32:03.988Z,-66
2022-07-27T22:34:32.149Z,-65
2022-07-27T22:37:00.501Z,-66
2022-07-27T22:39:30.114Z,-65
2022-07-27T22:41:59.045Z,-64
2022-07-27T22:44:27.242Z,-66
2022-07-27T22:46:55.477Z,-64
2022-07-27T22:49:23.690Z,-64
2022-07-27T22:51:52.841Z,-66
2022-07-27T22:54:23.067Z,-64
2022-07-27T22:56:53.320Z,-63
2022-07-27T22:59:21.840Z,-65
2022-07-27T23:01:49.942Z,-64
2022-07-27T23:04:18.732Z,-66
2022-07-27T23:06:47.652Z,-64
2022-07-27T23:09:16.727Z,-67
2022-07-27T23:11:45.501Z,-64
2022-07-27T23:14:15.340Z,-66
2022-07-27T23:16:44.471Z,-65
2022-07-27T23:19:12.682Z,-65
2022-07-27T23:21:41.754Z,-65
2022-07-27T23:24:13.521Z,-65
2022-07-27T23:26:42.702Z,-65
2022-07-27T23:29:10.954Z,-64
2022-07-27T23:31:40.503Z,-66
2022-07-27T23:34:08.677Z,-66
2022-07-27T23:36:36.760Z,-65
2022-07-27T23:39:05.190Z,-65
2022-07-27T23:41:33.232Z,-65
2022-07-27T23:44:01.353Z,-65
2022-07-27T23:46:29.598Z,-65
2022-07-27T23:48:59.089Z,-66
2022-07-27T23:51:27.174Z,-65
2022-07-27T23:53:55.195Z,-66
2022-07-27T23:56:23.239Z,-65
2022-07-27T23:58:51.275Z,-63
